createdAt,value
2023-01-21T00:00:11.040Z,99.99
2023-01-21T00:01:11.309Z,99.99
2023-01-21T00:02:11.630Z,99.99
2023-01-21T00:03:11.841Z,99.99
2023-01-21T00:04:12.111Z,99.99
2023-01-21T00:05:12.363Z,99.99
2023-01-21T00:06:12.684Z,99.99
2023-01-21T00:07:12.861Z,99.99
2023-01-21T00:08:13.152Z,99.99
2023-01-21T00:09:13.388Z,99.99
2023-01-21T00:10:13.769Z,99.99
2023-01-21T00:11:13.960Z,99.99
2023-01-21T00:12:14.192Z,99.99
2023-01-21T00:13:14.451Z,99.99
2023-01-21T00:14:14.738Z,99.99
2023-01-21T00:15:14.990Z,99.99
2023-01-21T00:16:15.778Z,99.99
2023-01-21T00:17:15.574Z,99.99
2023-01-21T00:18:15.790Z,99.99
2023-01-21T00:19:16.015Z,99.99
2023-01-21T00:20:16.676Z,99.99
2023-01-21T00:21:16.599Z,99.99
2023-01-21T00:22:17.132Z,99.99
2023-01-21T00:23:17.198Z,99.99
2023-01-21T00:24:17.449Z,99.99
2023-01-21T00:25:17.760Z,99.99
2023-01-21T00:26:18.016Z,99.99
2023-01-21T00:27:18.295Z,99.99
2023-01-21T00:28:18.635Z,99.99
2023-01-21T00:29:18.832Z,99.99
2023-01-21T00:30:19.277Z,99.99
2023-01-21T00:31:19.496Z,99.99
2023-01-21T00:32:19.731Z,99.99
2023-01-21T00:33:19.983Z,99.99
2023-01-21T00:34:20.339Z,99.99
2023-01-21T00:35:20.591Z,99.99
2023-01-21T00:36:20.836Z,99.99
2023-01-21T00:37:21.084Z,99.99
2023-01-21T00:38:21.381Z,99.99
2023-01-21T00:39:21.607Z,99.99
2023-01-21T00:40:21.932Z,99.99
2023-01-21T00:41:22.137Z,99.99
2023-01-21T00:42:22.442Z,99.99
2023-01-21T00:43:22.635Z,99.99
2023-01-21T00:44:22.893Z,99.99
2023-01-21T00:45:23.208Z,99.99
2023-01-21T00:46:23.593Z,99.99
2023-01-21T00:47:23.693Z,99.99
2023-01-21T00:48:23.975Z,99.99
2023-01-21T00:49:24.204Z,99.99
2023-01-21T00:50:25.433Z,99.99
2023-01-21T00:51:24.679Z,99.99
2023-01-21T00:52:25.086Z,99.99
2023-01-21T00:53:25.298Z,99.99
2023-01-21T00:54:25.529Z,99.99
2023-01-21T00:55:25.767Z,99.99
2023-01-21T00:56:26.089Z,99.99
2023-01-21T00:57:27.220Z,99.99
2023-01-21T00:58:26.674Z,99.99
2023-01-21T00:59:26.990Z,99.99
2023-01-21T01:00:27.257Z,99.99
2023-01-21T01:01:27.527Z,99.99
2023-01-21T01:02:27.904Z,99.99
2023-01-21T01:03:28.103Z,99.99
2023-01-21T01:04:28.431Z,99.99
2023-01-21T01:05:28.703Z,99.99
2023-01-21T01:06:28.978Z,99.99
2023-01-21T01:07:29.252Z,99.99
2023-01-21T01:08:29.468Z,99.99
2023-01-21T01:09:29.719Z,99.99
2023-01-21T01:10:30.035Z,99.99
2023-01-21T01:11:30.236Z,99.99
2023-01-21T01:12:30.523Z,99.99
2023-01-21T01:13:30.740Z,99.99
2023-01-21T01:14:31.001Z,99.99
2023-01-21T01:15:31.212Z,99.99
2023-01-21T01:16:31.522Z,99.99
2023-01-21T01:17:31.727Z,99.99
2023-01-21T01:18:31.959Z,99.99
2023-01-21T01:19:32.267Z,99.99
2023-01-21T01:20:32.546Z,99.99
2023-01-21T01:21:32.806Z,99.99
2023-01-21T01:22:33.064Z,99.99
2023-01-21T01:23:33.311Z,99.99
2023-01-21T01:24:33.559Z,99.99
2023-01-21T01:25:33.815Z,99.99
2023-01-21T01:26:34.133Z,99.99
2023-01-21T01:27:34.315Z,99.99
2023-01-21T01:28:34.706Z,99.99
2023-01-21T01:29:34.981Z,99.99
2023-01-21T01:30:35.254Z,99.99
2023-01-21T01:31:35.544Z,99.99
2023-01-21T01:32:35.780Z,99.99
2023-01-21T01:33:36.030Z,99.99
2023-01-21T01:34:36.478Z,99.99
2023-01-21T01:35:36.639Z,99.99
2023-01-21T01:36:36.971Z,99.99
2023-01-21T01:37:37.242Z,99.99
2023-01-21T01:38:37.599Z,99.99
2023-01-21T01:39:37.943Z,99.99
2023-01-21T01:40:38.260Z,99.99
2023-01-21T01:41:38.539Z,99.99
2023-01-21T01:42:38.897Z,99.99
2023-01-21T01:43:39.191Z,99.99
2023-01-21T01:44:39.683Z,99.99
2023-01-21T01:45:39.889Z,99.99
2023-01-21T01:46:40.281Z,99.99
2023-01-21T01:47:40.474Z,99.99
2023-01-21T01:48:40.959Z,99.99
2023-01-21T01:49:41.087Z,99.99
2023-01-21T01:50:41.528Z,99.99
2023-01-21T01:51:41.725Z,99.99
2023-01-21T01:52:42.042Z,99.99
2023-01-21T01:53:42.314Z,99.99
2023-01-21T01:54:42.645Z,99.99
2023-01-21T01:55:42.961Z,99.99
2023-01-21T01:56:43.222Z,99.99
2023-01-21T01:57:43.451Z,99.99
2023-01-21T01:58:43.743Z,99.99
2023-01-21T01:59:44.162Z,99.99
2023-01-21T02:00:44.373Z,99.99
2023-01-21T02:01:44.755Z,99.99
2023-01-21T02:02:44.984Z,99.99
2023-01-21T02:03:45.196Z,99.99
2023-01-21T02:04:45.554Z,99.99
2023-01-21T02:05:45.787Z,99.99
2023-01-21T02:06:46.127Z,99.99
2023-01-21T02:07:46.338Z,99.99
2023-01-21T02:08:46.676Z,99.99
2023-01-21T02:09:46.978Z,99.99
2023-01-21T02:10:47.222Z,99.99
2023-01-21T02:11:47.542Z,99.99
2023-01-21T02:12:47.787Z,99.99
2023-01-21T02:13:48.161Z,99.99
2023-01-21T02:14:48.397Z,99.99
2023-01-21T02:15:48.737Z,99.99
2023-01-21T02:16:49.896Z,99.99
2023-01-21T02:17:49.241Z,99.99
2023-01-21T02:18:49.570Z,99.99
2023-01-21T02:19:49.816Z,99.99
2023-01-21T02:20:50.232Z,99.99
2023-01-21T02:21:50.456Z,99.99
2023-01-21T02:22:50.756Z,99.99
2023-01-21T02:23:51.059Z,99.99
2023-01-21T02:24:51.365Z,99.99
2023-01-21T02:25:51.659Z,99.99
2023-01-21T02:26:52.041Z,99.99
2023-01-21T02:27:52.387Z,99.99
2023-01-21T02:28:52.704Z,99.99
2023-01-21T02:29:52.999Z,99.99
2023-01-21T02:30:53.377Z,99.99
2023-01-21T02:31:53.714Z,99.99
2023-01-21T02:32:53.935Z,99.99
2023-01-21T02:33:54.241Z,99.99
2023-01-21T02:34:54.649Z,99.99
2023-01-21T02:35:54.850Z,99.99
2023-01-21T02:36:55.186Z,99.99
2023-01-21T02:37:55.369Z,99.99
2023-01-21T02:38:55.754Z,99.99
2023-01-21T02:39:56.027Z,99.99
2023-01-21T02:40:56.426Z,99.99
2023-01-21T02:41:56.596Z,99.99
2023-01-21T02:42:56.972Z,99.99
2023-01-21T02:43:57.338Z,99.99
2023-01-21T02:44:57.688Z,99.99
2023-01-21T02:45:57.902Z,99.99
2023-01-21T02:46:58.204Z,99.99
2023-01-21T02:47:58.399Z,99.99
2023-01-21T02:48:58.771Z,99.99
2023-01-21T02:49:59.056Z,99.99
2023-01-21T02:50:59.475Z,99.99
2023-01-21T02:51:59.644Z,99.99
2023-01-21T02:52:59.969Z,99.99
2023-01-21T02:54:00.255Z,99.99
2023-01-21T02:55:00.664Z,99.99
2023-01-21T02:56:01.010Z,99.99
2023-01-21T02:57:01.236Z,99.99
2023-01-21T02:58:01.442Z,99.99
2023-01-21T02:59:01.741Z,99.99
2023-01-21T03:00:02.064Z,99.99
2023-01-21T03:01:02.602Z,99.99
2023-01-21T03:02:02.822Z,99.99
2023-01-21T03:03:03.028Z,99.99
2023-01-21T03:04:03.364Z,99.99
2023-01-21T03:05:03.660Z,99.99
2023-01-21T03:06:03.871Z,99.99
2023-01-21T03:07:04.236Z,99.99
2023-01-21T03:08:04.543Z,99.99
2023-01-21T03:09:04.910Z,99.99
2023-01-21T03:10:05.164Z,99.99
2023-01-21T03:11:05.580Z,99.99
2023-01-21T03:12:05.778Z,99.99
2023-01-21T03:13:06.059Z,99.99
2023-01-21T03:14:06.391Z,99.99
2023-01-21T03:15:06.737Z,99.99
2023-01-21T03:16:07.065Z,99.99
2023-01-21T03:17:07.258Z,99.99
2023-01-21T03:18:07.576Z,99.99
2023-01-21T03:19:08.017Z,99.99
2023-01-21T03:20:08.192Z,99.99
2023-01-21T03:21:08.497Z,99.99
2023-01-21T03:22:08.794Z,99.99
2023-01-21T03:23:09.111Z,99.99
2023-01-21T03:24:09.411Z,99.99
2023-01-21T03:25:09.728Z,99.99
2023-01-21T03:26:10.045Z,99.99
2023-01-21T03:27:10.349Z,99.99
2023-01-21T03:28:10.570Z,99.99
2023-01-21T03:29:10.908Z,99.99
2023-01-21T03:30:11.295Z,99.99
2023-01-21T03:31:11.788Z,99.99
2023-01-21T03:32:11.874Z,99.99
2023-01-21T03:33:12.251Z,99.99
2023-01-21T03:34:12.422Z,99.99
2023-01-21T03:35:12.877Z,99.99
2023-01-21T03:36:13.119Z,99.99
2023-01-21T03:37:13.329Z,99.99
2023-01-21T03:38:13.600Z,99.93
2023-01-21T03:39:13.930Z,99.99
2023-01-21T03:40:14.330Z,99.93
2023-01-21T03:41:14.578Z,99.93
2023-01-21T03:42:14.867Z,99.89
2023-01-21T03:43:15.070Z,99.73
2023-01-21T03:44:15.401Z,99.79
2023-01-21T03:45:15.701Z,99.79
2023-01-21T03:46:15.983Z,99.83
2023-01-21T03:47:16.376Z,99.73
2023-01-21T03:48:16.567Z,99.62
2023-01-21T03:49:16.893Z,99.52
2023-01-21T03:50:17.290Z,99.62
2023-01-21T03:51:17.598Z,99.41
2023-01-21T03:52:17.812Z,99.31
2023-01-21T03:53:18.211Z,99.41
2023-01-21T03:54:18.420Z,99.41
2023-01-21T03:55:18.828Z,99.25
2023-01-21T03:56:19.005Z,99.25
2023-01-21T03:57:19.323Z,99.20
2023-01-21T03:58:19.648Z,99.25
2023-01-21T03:59:19.955Z,99.15
2023-01-21T04:00:20.406Z,99.10
2023-01-21T04:01:20.659Z,99.04
2023-01-21T04:02:20.891Z,99.04
2023-01-21T04:03:21.041Z,99.04
2023-01-21T04:04:21.345Z,99.04
2023-01-21T04:05:21.617Z,98.83
2023-01-21T04:06:21.933Z,98.83
2023-01-21T04:07:22.139Z,99.04
2023-01-21T04:08:22.434Z,99.04
2023-01-21T04:09:22.786Z,99.15
2023-01-21T04:10:23.091Z,98.83
2023-01-21T04:11:23.397Z,98.93
2023-01-21T04:12:23.703Z,98.83
2023-01-21T04:13:24.055Z,98.83
2023-01-21T04:14:24.329Z,98.93
2023-01-21T04:15:24.635Z,98.83
2023-01-21T04:16:25.138Z,98.93
2023-01-21T04:17:25.220Z,98.83
2023-01-21T04:18:25.510Z,98.83
2023-01-21T04:19:25.848Z,98.72
2023-01-21T04:20:26.045Z,98.83
2023-01-21T04:21:26.419Z,98.83
2023-01-21T04:22:26.623Z,98.93
2023-01-21T04:23:26.867Z,98.72
2023-01-21T04:24:27.083Z,98.62
2023-01-21T04:25:27.462Z,98.62
2023-01-21T04:26:27.626Z,98.52
2023-01-21T04:27:27.950Z,98.52
2023-01-21T04:28:28.297Z,98.21
2023-01-21T04:29:28.650Z,98.10
2023-01-21T04:30:28.805Z,98.10
2023-01-21T04:31:29.194Z,98.10
2023-01-21T04:32:29.419Z,97.99
2023-01-21T04:33:29.778Z,97.99
2023-01-21T04:34:30.105Z,97.99
2023-01-21T04:35:30.443Z,97.89
2023-01-21T04:36:30.732Z,97.89
2023-01-21T04:37:31.080Z,97.89
2023-01-21T04:38:31.419Z,97.89
2023-01-21T04:39:31.783Z,97.99
2023-01-21T04:40:32.142Z,97.89
2023-01-21T04:41:32.404Z,97.78
2023-01-21T04:42:32.600Z,97.58
2023-01-21T04:43:33.020Z,97.58
2023-01-21T04:44:33.187Z,97.62
2023-01-21T04:45:33.640Z,97.72
2023-01-21T04:46:33.801Z,97.72
2023-01-21T04:47:34.072Z,97.83
2023-01-21T04:48:34.440Z,97.83
2023-01-21T04:49:34.656Z,97.89
2023-01-21T04:50:34.873Z,97.83
2023-01-21T04:51:35.217Z,97.94
2023-01-21T04:52:35.444Z,97.94
2023-01-21T04:53:35.953Z,97.99
2023-01-21T04:54:36.071Z,97.99
2023-01-21T04:55:36.441Z,98.10
2023-01-21T04:56:36.802Z,97.99
2023-01-21T04:57:37.029Z,97.89
2023-01-21T04:58:37.334Z,98.04
2023-01-21T04:59:37.706Z,98.04
2023-01-21T05:00:37.901Z,98.04
2023-01-21T05:01:38.217Z,98.14
2023-01-21T05:02:38.556Z,98.25
2023-01-21T05:03:38.880Z,98.31
2023-01-21T05:04:39.191Z,98.21
2023-01-21T05:05:39.580Z,98.21
2023-01-21T05:06:39.793Z,98.10
2023-01-21T05:07:40.099Z,98.25
2023-01-21T05:08:40.407Z,98.25
2023-01-21T05:09:40.675Z,98.04
2023-01-21T05:10:40.984Z,98.04
2023-01-21T05:11:41.366Z,98.14
2023-01-21T05:12:41.571Z,97.83
2023-01-21T05:13:41.903Z,97.72
2023-01-21T05:14:42.191Z,97.72
2023-01-21T05:15:42.582Z,97.62
2023-01-21T05:16:42.962Z,97.67
2023-01-21T05:17:43.116Z,97.98
2023-01-21T05:18:46.383Z,97.98
2023-01-21T05:19:43.704Z,98.08
2023-01-21T05:20:44.066Z,98.08
2023-01-21T05:21:44.334Z,98.19
2023-01-21T05:22:44.525Z,98.29
2023-01-21T05:23:44.868Z,98.29
2023-01-21T05:24:45.256Z,98.29
2023-01-21T05:25:45.447Z,98.19
2023-01-21T05:26:45.776Z,98.08
2023-01-21T05:27:46.079Z,98.13
2023-01-21T05:28:46.374Z,98.08
2023-01-21T05:29:46.749Z,97.98
2023-01-21T05:30:46.983Z,97.88
2023-01-21T05:31:47.261Z,97.77
2023-01-21T05:32:47.584Z,97.67
2023-01-21T05:33:47.836Z,97.67
2023-01-21T05:34:48.152Z,97.71
2023-01-21T05:35:48.517Z,97.71
2023-01-21T05:36:48.704Z,97.61
2023-01-21T05:37:49.058Z,97.61
2023-01-21T05:38:49.346Z,97.71
2023-01-21T05:39:49.702Z,97.61
2023-01-21T05:40:50.352Z,97.50
2023-01-21T05:41:50.227Z,97.29
2023-01-21T05:42:50.550Z,97.08
2023-01-21T05:43:50.909Z,96.88
2023-01-21T05:44:51.193Z,96.98
2023-01-21T05:45:51.591Z,97.19
2023-01-21T05:46:51.773Z,97.19
2023-01-21T05:47:52.087Z,97.08
2023-01-21T05:48:52.375Z,97.08
2023-01-21T05:49:52.682Z,97.08
2023-01-21T05:50:53.047Z,96.98
2023-01-21T05:51:53.764Z,96.98
2023-01-21T05:52:53.670Z,96.77
2023-01-21T05:53:54.107Z,96.77
2023-01-21T05:55:01.896Z,96.81
2023-01-21T05:55:55.641Z,96.92
2023-01-21T05:56:54.849Z,96.81
2023-01-21T05:57:55.166Z,97.02
2023-01-21T05:58:55.517Z,97.02
2023-01-21T05:59:55.668Z,96.81
2023-01-21T06:00:55.996Z,96.88
2023-01-21T06:01:56.397Z,96.71
2023-01-21T06:02:56.573Z,96.61
2023-01-21T06:03:56.964Z,96.39
2023-01-21T06:04:57.197Z,96.39
2023-01-21T06:05:57.550Z,96.39
2023-01-21T06:06:57.929Z,96.14
2023-01-21T06:07:58.140Z,96.08
2023-01-21T06:08:58.461Z,95.98
2023-01-21T06:09:58.766Z,95.76
2023-01-21T06:10:59.117Z,95.98
2023-01-21T06:11:59.483Z,95.76
2023-01-21T06:12:59.695Z,95.76
2023-01-21T06:13:59.999Z,95.66
2023-01-21T06:15:00.408Z,95.35
2023-01-21T06:16:00.620Z,95.03
2023-01-21T06:17:00.895Z,95.25
2023-01-21T06:18:01.155Z,95.35
2023-01-21T06:19:01.425Z,95.35
2023-01-21T06:20:01.809Z,95.45
2023-01-21T06:21:02.019Z,95.60
2023-01-21T06:22:02.381Z,95.50
2023-01-21T06:23:02.617Z,95.39
2023-01-21T06:24:02.904Z,95.39
2023-01-21T06:25:03.209Z,95.50
2023-01-21T06:26:03.536Z,95.39
2023-01-21T06:27:03.818Z,95.50
2023-01-21T06:28:04.208Z,95.39
2023-01-21T06:29:04.446Z,95.29
2023-01-21T06:30:04.838Z,95.29
2023-01-21T06:31:05.076Z,95.29
2023-01-21T06:32:05.445Z,95.29
2023-01-21T06:33:05.575Z,95.18
2023-01-21T06:34:05.844Z,95.29
2023-01-21T06:35:06.123Z,95.33
2023-01-21T06:36:06.352Z,95.29
2023-01-21T06:37:06.642Z,95.29
2023-01-21T06:38:06.909Z,95.29
2023-01-21T06:39:07.208Z,95.39
2023-01-21T06:40:07.517Z,95.39
2023-01-21T06:41:07.737Z,95.39
2023-01-21T06:42:08.121Z,95.39
2023-01-21T06:43:08.341Z,95.29
2023-01-21T06:44:09.487Z,95.12
2023-01-21T06:45:09.005Z,95.01
2023-01-21T06:46:09.207Z,95.12
2023-01-21T06:47:09.953Z,95.12
2023-01-21T06:48:09.819Z,95.23
2023-01-21T06:49:10.038Z,95.01
2023-01-21T06:50:10.334Z,95.01
2023-01-21T06:51:10.654Z,95.12
2023-01-21T06:52:10.858Z,95.33
2023-01-21T06:53:11.133Z,95.43
2023-01-21T06:54:11.431Z,95.43
2023-01-21T06:55:11.626Z,95.43
2023-01-21T06:56:11.888Z,95.33
2023-01-21T06:57:12.201Z,95.43
2023-01-21T06:58:12.474Z,95.27
2023-01-21T06:59:12.834Z,95.48
2023-01-21T07:00:13.067Z,95.54
2023-01-21T07:01:13.354Z,95.54
2023-01-21T07:02:13.645Z,95.48
2023-01-21T07:03:13.896Z,95.75
2023-01-21T07:04:14.191Z,95.86
2023-01-21T07:05:14.668Z,95.79
2023-01-21T07:06:14.755Z,95.79
2023-01-21T07:07:15.009Z,95.90
2023-01-21T07:08:15.304Z,96.00
2023-01-21T07:09:15.542Z,96.00
2023-01-21T07:10:16.010Z,95.90
2023-01-21T07:11:16.232Z,96.00
2023-01-21T07:12:16.427Z,95.90
2023-01-21T07:13:16.671Z,96.00
2023-01-21T07:14:16.960Z,96.11
2023-01-21T07:15:17.557Z,96.11
2023-01-21T07:16:17.581Z,96.11
2023-01-21T07:17:17.807Z,96.11
2023-01-21T07:18:18.083Z,96.15
2023-01-21T07:19:18.321Z,96.11
2023-01-21T07:20:18.643Z,96.15
2023-01-21T07:21:18.859Z,96.25
2023-01-21T07:22:19.114Z,96.25
2023-01-21T07:23:19.695Z,96.25
2023-01-21T07:24:19.714Z,96.04
2023-01-21T07:25:20.010Z,96.04
2023-01-21T07:26:20.377Z,95.84
2023-01-21T07:27:20.593Z,95.94
2023-01-21T07:28:20.906Z,96.04
2023-01-21T07:29:21.146Z,96.04
2023-01-21T07:30:21.421Z,95.94
2023-01-21T07:31:21.801Z,96.04
2023-01-21T07:32:22.061Z,95.94
2023-01-21T07:33:22.249Z,95.94
2023-01-21T07:34:22.466Z,95.94
2023-01-21T07:35:22.728Z,95.84
2023-01-21T07:36:23.053Z,95.73
2023-01-21T07:37:23.285Z,95.73
2023-01-21T07:38:23.540Z,95.62
2023-01-21T07:39:23.805Z,95.62
2023-01-21T07:40:24.068Z,95.73
2023-01-21T07:41:24.379Z,95.84
2023-01-21T07:42:24.639Z,95.78
2023-01-21T07:43:24.941Z,95.88
2023-01-21T07:44:25.211Z,95.88
2023-01-21T07:45:25.515Z,95.88
2023-01-21T07:46:25.843Z,95.98
2023-01-21T07:47:26.052Z,96.09
2023-01-21T07:48:26.366Z,96.09
2023-01-21T07:49:26.623Z,96.09
2023-01-21T07:50:26.984Z,95.98
2023-01-21T07:51:27.214Z,95.98
2023-01-21T07:52:27.509Z,95.98
2023-01-21T07:53:27.808Z,95.98
2023-01-21T07:54:28.102Z,95.98
2023-01-21T07:55:28.382Z,96.09
2023-01-21T07:56:28.744Z,96.19
2023-01-21T07:57:28.943Z,96.19
2023-01-21T07:58:29.209Z,96.30
2023-01-21T07:59:29.550Z,96.30
2023-01-21T08:00:29.814Z,96.41
2023-01-21T08:01:30.130Z,96.41
2023-01-21T08:02:30.513Z,96.30
2023-01-21T08:03:30.633Z,96.19
2023-01-21T08:04:30.929Z,96.19
2023-01-21T08:05:31.222Z,96.25
2023-01-21T08:06:31.545Z,96.15
2023-01-21T08:07:31.820Z,96.04
2023-01-21T08:08:32.105Z,95.94
2023-01-21T08:09:32.383Z,95.94
2023-01-21T08:10:32.647Z,95.94
2023-01-21T08:11:32.955Z,95.84
2023-01-21T08:12:33.285Z,95.84
2023-01-21T08:13:33.517Z,95.62
2023-01-21T08:14:33.818Z,95.62
2023-01-21T08:15:34.085Z,95.62
2023-01-21T08:16:34.559Z,95.62
2023-01-21T08:17:34.635Z,95.62
2023-01-21T08:18:34.998Z,95.62
2023-01-21T08:19:35.270Z,95.46
2023-01-21T08:20:35.630Z,95.36
2023-01-21T08:21:35.826Z,95.42
2023-01-21T08:22:36.117Z,95.52
2023-01-21T08:23:36.414Z,95.52
2023-01-21T08:24:36.671Z,95.52
2023-01-21T08:25:36.930Z,95.52
2023-01-21T08:26:37.225Z,95.42
2023-01-21T08:27:37.535Z,95.42
2023-01-21T08:28:37.795Z,95.42
2023-01-21T08:29:38.141Z,95.42
2023-01-21T08:30:38.457Z,95.31
2023-01-21T08:31:38.707Z,95.31
2023-01-21T08:32:38.984Z,95.31
2023-01-21T08:33:39.237Z,95.31
2023-01-21T08:34:39.563Z,95.31
2023-01-21T08:35:39.800Z,95.31
2023-01-21T08:36:40.197Z,95.42
2023-01-21T08:37:40.412Z,95.27
2023-01-21T08:38:40.713Z,95.17
2023-01-21T08:39:41.026Z,95.06
2023-01-21T08:40:41.359Z,94.95
2023-01-21T08:41:41.604Z,94.74
2023-01-21T08:42:41.922Z,94.64
2023-01-21T08:43:42.197Z,94.64
2023-01-21T08:44:42.509Z,94.54
2023-01-21T08:45:42.897Z,94.54
2023-01-21T08:46:43.001Z,94.60
2023-01-21T08:47:43.335Z,94.38
2023-01-21T08:48:43.593Z,94.28
2023-01-21T08:49:43.860Z,94.18
2023-01-21T08:50:44.223Z,93.97
2023-01-21T08:51:44.359Z,93.82
2023-01-21T08:52:44.668Z,93.71
2023-01-21T08:53:44.996Z,93.61
2023-01-21T08:54:45.356Z,93.40
2023-01-21T08:55:45.581Z,93.30
2023-01-21T08:56:45.884Z,93.26
2023-01-21T08:57:46.181Z,93.15
2023-01-21T08:58:46.508Z,92.83
2023-01-21T08:59:46.804Z,92.69
2023-01-21T09:00:47.060Z,92.27
2023-01-21T09:01:47.383Z,91.54
2023-01-21T09:02:49.035Z,91.08
2023-01-21T09:03:47.850Z,90.72
2023-01-21T09:04:48.197Z,90.52
2023-01-21T09:05:48.582Z,89.99
2023-01-21T09:06:48.740Z,89.89
2023-01-21T09:07:49.030Z,89.78
2023-01-21T09:08:49.318Z,89.68
2023-01-21T09:09:49.591Z,89.26
2023-01-21T09:10:49.913Z,89.26
2023-01-21T09:11:50.139Z,89.36
2023-01-21T09:12:50.434Z,89.20
2023-01-21T09:13:50.748Z,89.30
2023-01-21T09:14:51.029Z,89.51
2023-01-21T09:15:51.491Z,89.61
2023-01-21T09:16:51.651Z,89.55
2023-01-21T09:17:51.919Z,89.65
2023-01-21T09:18:52.214Z,89.76
2023-01-21T09:19:54.583Z,90.43
2023-01-21T09:20:52.803Z,91.02
2023-01-21T09:21:53.030Z,91.16
2023-01-21T09:22:53.299Z,91.43
2023-01-21T09:23:53.558Z,91.64
2023-01-21T09:24:53.853Z,91.43
2023-01-21T09:25:54.187Z,91.43
2023-01-21T09:26:54.490Z,91.12
2023-01-21T09:27:54.759Z,90.95
2023-01-21T09:28:55.066Z,91.27
2023-01-21T09:29:55.323Z,91.43
2023-01-21T09:30:55.713Z,91.37
2023-01-21T09:31:55.899Z,91.37
2023-01-21T09:32:56.203Z,91.89
2023-01-21T09:33:56.480Z,92.06
2023-01-21T09:34:56.828Z,92.06
2023-01-21T09:35:57.115Z,91.96
2023-01-21T09:36:57.394Z,91.43
2023-01-21T09:37:57.628Z,91.33
2023-01-21T09:38:57.973Z,91.22
2023-01-21T09:39:58.234Z,91.02
2023-01-21T09:40:58.607Z,91.22
2023-01-21T09:41:58.904Z,91.22
2023-01-21T09:42:59.667Z,91.33
2023-01-21T09:43:59.550Z,91.22
2023-01-21T09:45:00.371Z,91.22
2023-01-21T09:46:02.930Z,91.22
2023-01-21T09:47:14.780Z,91.02
2023-01-21T09:48:00.900Z,91.12
2023-01-21T09:49:00.924Z,91.54
2023-01-21T09:50:01.500Z,91.64
2023-01-21T09:51:02.235Z,91.54
2023-01-21T09:52:01.803Z,91.22
2023-01-21T09:53:02.388Z,91.18
2023-01-21T09:54:02.314Z,91.28
2023-01-21T09:55:03.030Z,91.08
2023-01-21T09:56:03.003Z,90.49
2023-01-21T09:57:03.257Z,90.49
2023-01-21T09:58:04.606Z,90.70
2023-01-21T09:59:04.107Z,90.59
2023-01-21T10:00:05.260Z,90.70
2023-01-21T10:01:04.616Z,90.59
2023-01-21T10:02:04.898Z,90.70
2023-01-21T10:03:05.851Z,90.91
2023-01-21T10:04:05.329Z,91.22
2023-01-21T10:05:05.726Z,91.43
2023-01-21T10:06:05.927Z,91.02
2023-01-21T10:07:06.239Z,90.70
2023-01-21T10:08:06.776Z,90.39
2023-01-21T10:09:06.852Z,90.59
2023-01-21T10:10:07.129Z,91.02
2023-01-21T10:11:07.915Z,91.22
2023-01-21T10:12:07.678Z,91.22
2023-01-21T10:13:07.919Z,91.22
2023-01-21T10:14:08.213Z,91.39
2023-01-21T10:15:08.510Z,91.39
2023-01-21T10:16:08.796Z,91.60
2023-01-21T10:17:09.139Z,91.50
2023-01-21T10:18:09.406Z,91.18
2023-01-21T10:19:09.753Z,91.08
2023-01-21T10:20:10.025Z,90.97
2023-01-21T10:21:10.320Z,90.87
2023-01-21T10:22:10.617Z,90.87
2023-01-21T10:23:10.886Z,91.08
2023-01-21T10:24:11.157Z,91.08
2023-01-21T10:25:11.496Z,91.14
2023-01-21T10:26:11.721Z,90.93
2023-01-21T10:27:12.005Z,90.93
2023-01-21T10:28:12.272Z,90.72
2023-01-21T10:29:12.562Z,90.72
2023-01-21T10:30:12.901Z,90.93
2023-01-21T10:31:13.253Z,91.00
2023-01-21T10:32:13.401Z,90.31
2023-01-21T10:33:13.681Z,90.06
2023-01-21T10:34:13.996Z,89.84
2023-01-21T10:35:14.358Z,89.58
2023-01-21T10:36:14.614Z,89.64
2023-01-21T10:37:14.887Z,89.64
2023-01-21T10:38:15.178Z,89.32
2023-01-21T10:39:15.527Z,89.53
2023-01-21T10:40:15.844Z,89.64
2023-01-21T10:41:16.096Z,89.43
2023-01-21T10:42:16.419Z,89.64
2023-01-21T10:43:16.725Z,89.64
2023-01-21T10:44:17.029Z,89.49
2023-01-21T10:45:17.567Z,89.18
2023-01-21T10:46:17.649Z,88.76
2023-01-21T10:47:17.996Z,88.55
2023-01-21T10:48:18.237Z,88.34
2023-01-21T10:49:18.516Z,88.34
2023-01-21T10:50:18.846Z,88.28
2023-01-21T10:51:19.136Z,88.45
2023-01-21T10:52:19.449Z,88.28
2023-01-21T10:53:19.752Z,88.59
2023-01-21T10:54:22.372Z,88.70
2023-01-21T10:55:20.384Z,88.80
2023-01-21T10:56:20.632Z,89.11
2023-01-21T10:57:20.925Z,89.22
2023-01-21T10:58:21.266Z,89.32
2023-01-21T10:59:21.518Z,89.49
2023-01-21T11:00:21.853Z,89.18
2023-01-21T11:01:22.180Z,88.87
2023-01-21T11:02:22.488Z,88.65
2023-01-21T11:03:22.800Z,88.34
2023-01-21T11:04:23.052Z,88.65
2023-01-21T11:05:23.336Z,88.24
2023-01-21T11:06:23.676Z,87.93
2023-01-21T11:07:23.959Z,87.76
2023-01-21T11:08:24.213Z,88.59
2023-01-21T11:09:24.534Z,89.01
2023-01-21T11:10:24.957Z,89.01
2023-01-21T11:11:25.076Z,89.05
2023-01-21T11:12:25.357Z,89.36
2023-01-21T11:13:25.683Z,89.58
2023-01-21T11:14:26.013Z,89.58
2023-01-21T11:15:26.297Z,89.68
2023-01-21T11:16:26.535Z,89.99
2023-01-21T11:17:26.816Z,89.99
2023-01-21T11:18:27.081Z,89.89
2023-01-21T11:19:27.450Z,90.09
2023-01-21T11:20:27.691Z,90.47
2023-01-21T11:21:27.982Z,90.06
2023-01-21T11:22:28.297Z,89.22
2023-01-21T11:23:28.553Z,88.80
2023-01-21T11:24:28.841Z,89.01
2023-01-21T11:25:29.165Z,89.22
2023-01-21T11:26:29.481Z,89.43
2023-01-21T11:27:29.741Z,89.59
2023-01-21T11:28:29.973Z,89.28
2023-01-21T11:29:30.251Z,88.97
2023-01-21T11:30:50.153Z,88.87
2023-01-21T11:31:31.933Z,89.07
2023-01-21T11:32:31.195Z,88.97
2023-01-21T11:33:31.463Z,88.87
2023-01-21T11:34:31.767Z,88.97
2023-01-21T11:35:32.098Z,89.28
2023-01-21T11:36:32.326Z,89.18
2023-01-21T11:37:32.788Z,89.18
2023-01-21T11:38:32.921Z,89.28
2023-01-21T11:39:33.444Z,89.39
2023-01-21T11:40:33.555Z,89.28
2023-01-21T11:41:33.847Z,89.39
2023-01-21T11:42:34.147Z,89.70
2023-01-21T11:43:34.476Z,89.70
2023-01-21T11:44:34.728Z,89.70
2023-01-21T11:45:35.047Z,89.59
2023-01-21T11:46:35.414Z,89.59
2023-01-21T11:47:36.321Z,89.49
2023-01-21T11:48:35.988Z,89.59
2023-01-21T11:49:36.238Z,89.39
2023-01-21T11:50:36.546Z,89.70
2023-01-21T11:51:36.822Z,89.70
2023-01-21T11:52:37.236Z,89.59
2023-01-21T11:53:37.343Z,89.76
2023-01-21T11:54:37.637Z,89.70
2023-01-21T11:55:37.891Z,89.81
2023-01-21T11:56:38.320Z,89.81
2023-01-21T11:57:38.538Z,90.22
2023-01-21T11:58:38.812Z,90.22
2023-01-21T11:59:39.057Z,89.91
2023-01-21T12:00:39.353Z,90.01
2023-01-21T12:01:39.629Z,90.01
2023-01-21T12:02:39.962Z,90.37
2023-01-21T12:03:40.291Z,90.68
2023-01-21T12:04:40.549Z,90.89
2023-01-21T12:05:40.866Z,91.20
2023-01-21T12:06:41.122Z,91.41
2023-01-21T12:07:41.439Z,91.62
2023-01-21T12:08:41.787Z,91.62
2023-01-21T12:09:42.032Z,91.72
2023-01-21T12:10:42.308Z,91.83
2023-01-21T12:11:42.692Z,91.83
2023-01-21T12:12:42.963Z,91.94
2023-01-21T12:13:43.222Z,91.94
2023-01-21T12:14:43.532Z,92.25
2023-01-21T12:15:43.893Z,92.14
2023-01-21T12:16:44.131Z,92.04
2023-01-21T12:17:44.419Z,92.14
2023-01-21T12:18:44.790Z,91.94
2023-01-21T12:19:45.080Z,91.72
2023-01-21T12:20:45.310Z,91.69
2023-01-21T12:21:45.608Z,91.58
2023-01-21T12:22:45.882Z,91.27
2023-01-21T12:23:46.195Z,90.89
2023-01-21T12:24:46.513Z,91.00
2023-01-21T12:25:46.769Z,90.95
2023-01-21T12:26:47.093Z,91.06
2023-01-21T12:27:47.313Z,91.58
2023-01-21T12:28:47.606Z,91.79
2023-01-21T12:29:47.939Z,91.79
2023-01-21T12:30:48.240Z,91.89
2023-01-21T12:31:48.590Z,92.10
2023-01-21T12:32:48.794Z,92.10
2023-01-21T12:33:49.188Z,92.52
2023-01-21T12:34:49.374Z,92.31
2023-01-21T12:35:49.691Z,91.89
2023-01-21T12:36:50.037Z,91.89
2023-01-21T12:37:50.181Z,92.10
2023-01-21T12:38:50.573Z,92.00
2023-01-21T12:39:50.896Z,91.47
2023-01-21T12:40:51.167Z,91.37
2023-01-21T12:41:51.460Z,91.58
2023-01-21T12:42:54.824Z,91.69
2023-01-21T12:43:52.046Z,91.69
2023-01-21T12:44:52.329Z,91.58
2023-01-21T12:45:52.685Z,91.69
2023-01-21T12:46:53.073Z,91.79
2023-01-21T12:47:53.288Z,91.58
2023-01-21T12:48:53.589Z,91.47
2023-01-21T12:49:53.829Z,91.58
2023-01-21T12:50:54.148Z,91.47
2023-01-21T12:51:54.532Z,91.58
2023-01-21T12:52:54.659Z,91.47
2023-01-21T12:53:54.976Z,91.16
2023-01-21T12:54:55.169Z,91.27
2023-01-21T12:55:55.437Z,91.27